SWA2526 PHKO-PHOG
Flight info
| Callsign | SWA2526 |
|---|---|
| Flight time | 0h 23m |
| Altitude | 14000 |
| Route | KOA V1 HARPO CAMPS4 |
| Aircraft | B38M/M-SDE1FGHILORVWXY/HB1 |
Departure
| Time | 2026-05-03 23:48 |
|---|---|
| Airport | Ellison Onizuka Kona International Airport at Keāhole (PHKO) |
Arrival
| Time | 2026-05-04 00:12 |
|---|---|
| Airport | Kahului International Airport (PHOG) |
| Time | Latitude | Longitude | Altitude | Speed | Heading |
|---|---|---|---|---|---|
| 2026-05-03 23:14 | 19.73591 | -156.04214 | 52 ft | 0 kts | 95° |
| 2026-05-03 23:38 | 19.73592 | -156.04221 | 50 ft | 4 kts | 95° |
| 2026-05-03 23:39 | 19.73593 | -156.04249 | 52 ft | 4 kts | 83° |
| 2026-05-03 23:39 | 19.73585 | -156.04275 | 48 ft | 4 kts | 56° |
| 2026-05-03 23:39 | 19.73568 | -156.04290 | 50 ft | 2 kts | 17° |
| 2026-05-03 23:39 | 19.73567 | -156.04291 | 50 ft | 1 kts | 17° |
| 2026-05-03 23:43 | 19.73587 | -156.04294 | 46 ft | 10 kts | 335° |
| 2026-05-03 23:43 | 19.73716 | -156.04323 | 50 ft | 26 kts | 4° |
| 2026-05-03 23:43 | 19.73908 | -156.04306 | 50 ft | 29 kts | 5° |
| 2026-05-03 23:44 | 19.74115 | -156.04290 | 51 ft | 30 kts | 5° |
| 2026-05-03 23:44 | 19.74328 | -156.04267 | 53 ft | 31 kts | 6° |
| 2026-05-03 23:44 | 19.74544 | -156.04251 | 56 ft | 32 kts | 4° |
| 2026-05-03 23:44 | 19.74767 | -156.04231 | 58 ft | 33 kts | 5° |
| 2026-05-03 23:45 | 19.74985 | -156.04212 | 57 ft | 32 kts | 4° |
| 2026-05-03 23:45 | 19.75200 | -156.04192 | 54 ft | 26 kts | 4° |
| 2026-05-03 23:45 | 19.75337 | -156.04194 | 54 ft | 16 kts | 328° |
| 2026-05-03 23:45 | 19.75364 | -156.04299 | 56 ft | 14 kts | 275° |
| 2026-05-03 23:46 | 19.75368 | -156.04355 | 55 ft | 7 kts | 275° |
| 2026-05-03 23:46 | 19.75366 | -156.04421 | 53 ft | 9 kts | 241° |
| 2026-05-03 23:46 | 19.75320 | -156.04439 | 54 ft | 3 kts | 183° |
| 2026-05-03 23:46 | 19.75319 | -156.04439 | 54 ft | 0 kts | 184° |
| 2026-05-03 23:47 | 19.75111 | -156.04458 | 56 ft | 60 kts | 185° |
| 2026-05-03 23:47 | 19.74504 | -156.04511 | 52 ft | 113 kts | 185° |
| 2026-05-03 23:48 | 19.73576 | -156.04594 | 52 ft | 153 kts | 185° |
| 2026-05-03 23:48 | 19.72522 | -156.04691 | 430 ft | 154 kts | 189° |
| 2026-05-03 23:48 | 19.71410 | -156.04788 | 748 ft | 166 kts | 187° |
| 2026-05-03 23:48 | 19.70232 | -156.04897 | 1113 ft | 173 kts | 186° |
| 2026-05-03 23:49 | 19.69012 | -156.04979 | 1370 ft | 177 kts | 185° |
| 2026-05-03 23:49 | 19.67783 | -156.05052 | 1644 ft | 177 kts | 187° |
| 2026-05-03 23:49 | 19.66554 | -156.05170 | 1982 ft | 177 kts | 188° |
| 2026-05-03 23:49 | 19.65322 | -156.05324 | 2346 ft | 180 kts | 188° |
| 2026-05-03 23:50 | 19.64075 | -156.05480 | 2549 ft | 179 kts | 186° |
| 2026-05-03 23:50 | 19.63247 | -156.05521 | 2798 ft | 180 kts | 183° |
| 2026-05-03 23:50 | 19.61485 | -156.05580 | 3383 ft | 201 kts | 183° |
| 2026-05-03 23:50 | 19.60018 | -156.05644 | 3837 ft | 221 kts | 183° |
| 2026-05-03 23:51 | 19.58412 | -156.05723 | 4260 ft | 242 kts | 183° |
| 2026-05-03 23:51 | 19.56679 | -156.05847 | 4840 ft | 260 kts | 189° |
| 2026-05-03 23:51 | 19.55131 | -156.06719 | 5763 ft | 260 kts | 225° |
| 2026-05-03 23:51 | 19.54240 | -156.08425 | 6361 ft | 277 kts | 258° |
| 2026-05-03 23:52 | 19.54309 | -156.10464 | 7216 ft | 278 kts | 284° |
| 2026-05-03 23:52 | 19.55122 | -156.12347 | 7936 ft | 288 kts | 309° |
| 2026-05-03 23:52 | 19.56694 | -156.13618 | 8829 ft | 287 kts | 338° |
| 2026-05-03 23:52 | 19.58663 | -156.14011 | 9622 ft | 291 kts | 4° |
| 2026-05-03 23:53 | 19.60661 | -156.13632 | 10388 ft | 297 kts | 12° |
| 2026-05-03 23:53 | 19.62759 | -156.13228 | 10835 ft | 315 kts | 10° |
| 2026-05-03 23:53 | 19.64966 | -156.12828 | 11391 ft | 328 kts | 10° |
| 2026-05-03 23:53 | 19.67227 | -156.12412 | 12199 ft | 330 kts | 10° |
| 2026-05-03 23:54 | 19.69509 | -156.11985 | 13019 ft | 335 kts | 10° |
| 2026-05-03 23:54 | 19.71829 | -156.11549 | 13716 ft | 342 kts | 10° |
| 2026-05-03 23:54 | 19.74150 | -156.11110 | 13929 ft | 344 kts | 10° |
| 2026-05-03 23:54 | 19.76582 | -156.10828 | 13947 ft | 357 kts | 357° |
| 2026-05-03 23:55 | 19.79016 | -156.11393 | 13954 ft | 361 kts | 337° |
| 2026-05-03 23:55 | 19.81159 | -156.12784 | 13976 ft | 363 kts | 321° |
| 2026-05-03 23:55 | 19.83150 | -156.14454 | 13980 ft | 364 kts | 321° |
| 2026-05-03 23:55 | 19.85129 | -156.16133 | 13984 ft | 364 kts | 321° |
| 2026-05-03 23:56 | 19.87102 | -156.17826 | 13987 ft | 364 kts | 321° |
| 2026-05-03 23:56 | 19.89071 | -156.19528 | 13984 ft | 364 kts | 321° |
| 2026-05-03 23:56 | 19.91033 | -156.21229 | 13976 ft | 364 kts | 321° |
| 2026-05-03 23:56 | 19.92997 | -156.22932 | 13980 ft | 364 kts | 321° |
| 2026-05-03 23:57 | 19.94944 | -156.24623 | 13979 ft | 355 kts | 321° |
| 2026-05-03 23:57 | 19.96817 | -156.26250 | 13978 ft | 342 kts | 320° |
| 2026-05-03 23:57 | 19.98654 | -156.27846 | 13973 ft | 340 kts | 320° |
| 2026-05-03 23:57 | 20.00485 | -156.29438 | 13973 ft | 340 kts | 320° |
| 2026-05-03 23:58 | 20.02313 | -156.31028 | 13970 ft | 340 kts | 320° |
| 2026-05-03 23:58 | 20.04143 | -156.32621 | 13979 ft | 340 kts | 320° |
| 2026-05-03 23:58 | 20.05951 | -156.34195 | 13978 ft | 337 kts | 320° |
| 2026-05-03 23:58 | 20.07742 | -156.35754 | 13979 ft | 330 kts | 320° |
| 2026-05-03 23:59 | 20.09514 | -156.37297 | 13979 ft | 328 kts | 320° |
| 2026-05-03 23:59 | 20.11278 | -156.38834 | 13971 ft | 327 kts | 320° |
| 2026-05-03 23:59 | 20.13036 | -156.40362 | 13969 ft | 324 kts | 321° |
| 2026-05-03 23:59 | 20.14992 | -156.41493 | 13969 ft | 319 kts | 343° |
| 2026-05-04 00:00 | 20.17176 | -156.41800 | 13599 ft | 318 kts | 359° |
| 2026-05-04 00:00 | 20.19395 | -156.41836 | 13200 ft | 318 kts | 359° |
| 2026-05-04 00:00 | 20.21598 | -156.41877 | 12858 ft | 316 kts | 359° |
| 2026-05-04 00:00 | 20.23788 | -156.41913 | 12494 ft | 314 kts | 359° |
| 2026-05-04 00:01 | 20.25968 | -156.41945 | 12153 ft | 312 kts | 360° |
| 2026-05-04 00:01 | 20.28131 | -156.41945 | 11811 ft | 310 kts | 0° |
| 2026-05-04 00:01 | 20.30267 | -156.41942 | 11411 ft | 312 kts | 0° |
| 2026-05-04 00:01 | 20.32442 | -156.41939 | 10931 ft | 313 kts | 0° |
| 2026-05-04 00:02 | 20.34613 | -156.41937 | 10463 ft | 309 kts | 0° |
| 2026-05-04 00:02 | 20.36738 | -156.41935 | 10018 ft | 302 kts | 0° |
| 2026-05-04 00:02 | 20.38809 | -156.41934 | 9653 ft | 292 kts | 0° |
| 2026-05-04 00:02 | 20.40811 | -156.41932 | 9280 ft | 284 kts | 1° |
| 2026-05-04 00:03 | 20.42773 | -156.41931 | 8964 ft | 281 kts | 1° |
| 2026-05-04 00:03 | 20.44725 | -156.41929 | 8687 ft | 280 kts | 1° |
| 2026-05-04 00:03 | 20.46671 | -156.41928 | 8330 ft | 281 kts | 1° |
| 2026-05-04 00:03 | 20.48634 | -156.41927 | 7969 ft | 281 kts | 1° |
| 2026-05-04 00:04 | 20.50578 | -156.41934 | 7651 ft | 276 kts | 1° |
| 2026-05-04 00:04 | 20.52476 | -156.41991 | 7340 ft | 271 kts | 354° |
| 2026-05-04 00:04 | 20.54287 | -156.42516 | 6942 ft | 270 kts | 343° |
| 2026-05-04 00:04 | 20.56064 | -156.43161 | 6489 ft | 271 kts | 344° |
| 2026-05-04 00:05 | 20.57829 | -156.43780 | 6024 ft | 270 kts | 344° |
| 2026-05-04 00:05 | 20.59608 | -156.44394 | 5555 ft | 268 kts | 344° |
| 2026-05-04 00:05 | 20.61372 | -156.44995 | 5185 ft | 261 kts | 345° |
| 2026-05-04 00:05 | 20.63074 | -156.45570 | 4889 ft | 252 kts | 345° |
| 2026-05-04 00:06 | 20.64718 | -156.46125 | 4598 ft | 243 kts | 345° |
| 2026-05-04 00:06 | 20.66302 | -156.46660 | 4280 ft | 235 kts | 345° |
| 2026-05-04 00:06 | 20.67853 | -156.47178 | 3923 ft | 232 kts | 346° |
| 2026-05-04 00:06 | 20.69382 | -156.47692 | 3564 ft | 228 kts | 346° |
| 2026-05-04 00:07 | 20.70869 | -156.48191 | 3269 ft | 219 kts | 346° |
| 2026-05-04 00:07 | 20.72296 | -156.48669 | 3008 ft | 211 kts | 346° |
| 2026-05-04 00:07 | 20.73673 | -156.49131 | 2759 ft | 203 kts | 345° |
| 2026-05-04 00:07 | 20.74970 | -156.49565 | 2632 ft | 189 kts | 345° |
| 2026-05-04 00:08 | 20.76204 | -156.49984 | 2484 ft | 183 kts | 346° |
| 2026-05-04 00:08 | 20.77407 | -156.50386 | 2444 ft | 181 kts | 345° |
| 2026-05-04 00:08 | 20.78629 | -156.50649 | 2332 ft | 175 kts | 7° |
| 2026-05-04 00:08 | 20.79712 | -156.50297 | 2194 ft | 151 kts | 27° |
| 2026-05-04 00:09 | 20.80585 | -156.49768 | 2052 ft | 142 kts | 32° |
| 2026-05-04 00:09 | 20.81407 | -156.49208 | 1855 ft | 138 kts | 34° |
| 2026-05-04 00:09 | 20.82186 | -156.48643 | 1690 ft | 135 kts | 35° |
| 2026-05-04 00:09 | 20.82955 | -156.48077 | 1506 ft | 133 kts | 36° |
| 2026-05-04 00:10 | 20.83717 | -156.47509 | 1334 ft | 134 kts | 37° |
| 2026-05-04 00:10 | 20.84484 | -156.46933 | 1129 ft | 135 kts | 36° |
| 2026-05-04 00:10 | 20.85251 | -156.46363 | 960 ft | 134 kts | 35° |
| 2026-05-04 00:10 | 20.85990 | -156.45787 | 795 ft | 131 kts | 37° |
| 2026-05-04 00:11 | 20.86730 | -156.45229 | 625 ft | 130 kts | 33° |
| 2026-05-04 00:11 | 20.87471 | -156.44704 | 428 ft | 125 kts | 33° |
| 2026-05-04 00:11 | 20.88192 | -156.44177 | 281 ft | 126 kts | 38° |
| 2026-05-04 00:11 | 20.88909 | -156.43632 | 111 ft | 125 kts | 35° |
| 2026-05-04 00:12 | 20.89575 | -156.43143 | 47 ft | 95 kts | 35° |
| 2026-05-04 00:12 | 20.89915 | -156.42891 | 45 ft | 29 kts | 34° |
| 2026-05-04 00:12 | 20.89999 | -156.42907 | 46 ft | 11 kts | 307° |
| 2026-05-04 00:12 | 20.89990 | -156.42985 | 47 ft | 13 kts | 225° |
| 2026-05-04 00:13 | 20.89914 | -156.43050 | 47 ft | 16 kts | 215° |
| 2026-05-04 00:13 | 20.89821 | -156.43118 | 46 ft | 16 kts | 214° |
| 2026-05-04 00:13 | 20.89721 | -156.43192 | 45 ft | 19 kts | 214° |
| 2026-05-04 00:13 | 20.89636 | -156.43256 | 45 ft | 12 kts | 215° |
| 2026-05-04 00:14 | 20.89558 | -156.43314 | 47 ft | 15 kts | 214° |
| 2026-05-04 00:14 | 20.89465 | -156.43382 | 47 ft | 16 kts | 214° |
| 2026-05-04 00:14 | 20.89404 | -156.43429 | 45 ft | 17 kts | 216° |
| 2026-05-04 00:14 | 20.89291 | -156.43512 | 45 ft | 12 kts | 214° |
| 2026-05-04 00:15 | 20.89222 | -156.43564 | 47 ft | 13 kts | 215° |
| 2026-05-04 00:15 | 20.89157 | -156.43613 | 46 ft | 9 kts | 215° |
| 2026-05-04 00:15 | 20.89125 | -156.43649 | 44 ft | 5 kts | 252° |
| 2026-05-04 00:15 | 20.89124 | -156.43658 | 46 ft | 0 kts | 269° |
| 2026-05-04 00:16 | 20.89127 | -156.43669 | 47 ft | 2 kts | 304° |
| 2026-05-04 00:16 | 20.89153 | -156.43696 | 46 ft | 7 kts | 309° |
| 2026-05-04 00:16 | 20.89178 | -156.43721 | 47 ft | 1 kts | 312° |
| 2026-05-04 00:16 | 20.89187 | -156.43734 | 47 ft | 2 kts | 306° |
| 2026-05-04 00:17 | 20.89194 | -156.43744 | 47 ft | 1 kts | 306° |
| 2026-05-04 00:17 | 20.89195 | -156.43747 | 47 ft | 0 kts | 306° |